sensor_id;sensor_type;location;lat;lon;timestamp;temperature;humidity
54461;DHT22;40371;49.414;11.010;2022-08-19T00:00:25;22.50;99.90
54461;DHT22;40371;49.414;11.010;2022-08-19T00:02:51;22.50;99.90
54461;DHT22;40371;49.414;11.010;2022-08-19T00:05:17;22.50;99.90
54461;DHT22;40371;49.414;11.010;2022-08-19T00:07:43;22.50;99.90
54461;DHT22;40371;49.414;11.010;2022-08-19T00:10:10;22.50;99.90
54461;DHT22;40371;49.414;11.010;2022-08-19T00:12:37;22.40;99.90
54461;DHT22;40371;49.414;11.010;2022-08-19T00:15:05;22.30;99.90
54461;DHT22;40371;49.414;11.010;2022-08-19T00:17:42;22.30;99.90
54461;DHT22;40371;49.414;11.010;2022-08-19T00:20:11;22.30;99.90
54461;DHT22;40371;49.414;11.010;2022-08-19T00:22:37;22.30;99.90
54461;DHT22;40371;49.414;11.010;2022-08-19T00:25:05;22.30;99.90
54461;DHT22;40371;49.414;11.010;2022-08-19T00:27:31;22.30;99.90
54461;DHT22;40371;49.414;11.010;2022-08-19T00:29:56;22.30;99.90
54461;DHT22;40371;49.414;11.010;2022-08-19T00:32:24;22.30;99.90
54461;DHT22;40371;49.414;11.010;2022-08-19T00:34:51;22.30;99.90
54461;DHT22;40371;49.414;11.010;2022-08-19T00:37:22;22.20;99.90
54461;DHT22;40371;49.414;11.010;2022-08-19T00:39:49;22.20;99.90
54461;DHT22;40371;49.414;11.010;2022-08-19T00:42:17;22.20;99.90
54461;DHT22;40371;49.414;11.010;2022-08-19T00:44:42;22.20;99.90
54461;DHT22;40371;49.414;11.010;2022-08-19T00:47:08;22.20;99.90
54461;DHT22;40371;49.414;11.010;2022-08-19T00:49:44;22.20;99.90
54461;DHT22;40371;49.414;11.010;2022-08-19T00:52:22;22.30;99.90
54461;DHT22;40371;49.414;11.010;2022-08-19T00:54:50;22.30;99.90
54461;DHT22;40371;49.414;11.010;2022-08-19T00:57:28;22.30;99.90
54461;DHT22;40371;49.414;11.010;2022-08-19T00:59:56;22.30;99.90
54461;DHT22;40371;49.414;11.010;2022-08-19T01:02:24;22.30;99.90
54461;DHT22;40371;49.414;11.010;2022-08-19T01:04:49;22.30;99.90
54461;DHT22;40371;49.414;11.010;2022-08-19T01:07:15;22.30;99.90
54461;DHT22;40371;49.414;11.010;2022-08-19T01:09:42;22.30;99.90
54461;DHT22;40371;49.414;11.010;2022-08-19T01:12:08;22.30;99.90
54461;DHT22;40371;49.414;11.010;2022-08-19T01:14:34;22.30;99.90
54461;DHT22;40371;49.414;11.010;2022-08-19T01:17:00;22.30;99.90
54461;DHT22;40371;49.414;11.010;2022-08-19T01:19:31;22.30;99.90
54461;DHT22;40371;49.414;11.010;2022-08-19T01:22:03;22.30;99.90
54461;DHT22;40371;49.414;11.010;2022-08-19T01:24:30;22.30;99.90
54461;DHT22;40371;49.414;11.010;2022-08-19T01:26:56;22.30;99.90
54461;DHT22;40371;49.414;11.010;2022-08-19T01:29:22;22.30;99.90
54461;DHT22;40371;49.414;11.010;2022-08-19T01:31:48;22.30;99.90
54461;DHT22;40371;49.414;11.010;2022-08-19T01:34:14;22.30;99.90
54461;DHT22;40371;49.414;11.010;2022-08-19T01:36:42;22.30;99.90
54461;DHT22;40371;49.414;11.010;2022-08-19T01:39:15;22.30;99.90
54461;DHT22;40371;49.414;11.010;2022-08-19T01:41:41;22.20;99.90
54461;DHT22;40371;49.414;11.010;2022-08-19T01:44:08;22.20;99.90
54461;DHT22;40371;49.414;11.010;2022-08-19T01:46:35;22.20;99.90
54461;DHT22;40371;49.414;11.010;2022-08-19T01:49:04;22.20;99.90
54461;DHT22;40371;49.414;11.010;2022-08-19T01:51:29;22.20;99.90
54461;DHT22;40371;49.414;11.010;2022-08-19T01:53:56;22.20;99.90
54461;DHT22;40371;49.414;11.010;2022-08-19T01:56:22;22.20;99.90
54461;DHT22;40371;49.414;11.010;2022-08-19T01:58:53;22.30;99.90
54461;DHT22;40371;49.414;11.010;2022-08-19T02:01:19;22.20;99.90
54461;DHT22;40371;49.414;11.010;2022-08-19T02:03:45;22.20;99.90
54461;DHT22;40371;49.414;11.010;2022-08-19T02:06:11;22.20;99.90
54461;DHT22;40371;49.414;11.010;2022-08-19T02:08:39;22.20;99.90
54461;DHT22;40371;49.414;11.010;2022-08-19T02:11:05;22.20;99.90
54461;DHT22;40371;49.414;11.010;2022-08-19T02:13:32;22.20;99.90
54461;DHT22;40371;49.414;11.010;2022-08-19T02:15:58;22.30;99.90
54461;DHT22;40371;49.414;11.010;2022-08-19T02:18:23;22.30;99.90
54461;DHT22;40371;49.414;11.010;2022-08-19T02:20:49;22.30;99.90
54461;DHT22;40371;49.414;11.010;2022-08-19T02:23:15;22.30;99.90
54461;DHT22;40371;49.414;11.010;2022-08-19T02:25:44;22.30;99.90
54461;DHT22;40371;49.414;11.010;2022-08-19T02:28:10;22.30;99.90
54461;DHT22;40371;49.414;11.010;2022-08-19T02:30:37;22.20;99.90
54461;DHT22;40371;49.414;11.010;2022-08-19T02:33:04;22.30;99.90
54461;DHT22;40371;49.414;11.010;2022-08-19T02:35:30;22.20;99.90
54461;DHT22;40371;49.414;11.010;2022-08-19T02:37:56;22.20;99.90
54461;DHT22;40371;49.414;11.010;2022-08-19T02:40:40;22.20;99.90
54461;DHT22;40371;49.414;11.010;2022-08-19T02:43:08;22.20;99.90
54461;DHT22;40371;49.414;11.010;2022-08-19T02:45:38;22.20;99.90
54461;DHT22;40371;49.414;11.010;2022-08-19T02:48:05;22.10;99.90
54461;DHT22;40371;49.414;11.010;2022-08-19T02:50:31;22.10;99.90
54461;DHT22;40371;49.414;11.010;2022-08-19T02:52:57;22.10;99.90
54461;DHT22;40371;49.414;11.010;2022-08-19T02:55:23;22.20;99.90
54461;DHT22;40371;49.414;11.010;2022-08-19T02:57:48;22.20;99.90
54461;DHT22;40371;49.414;11.010;2022-08-19T03:00:14;22.20;99.90
54461;DHT22;40371;49.414;11.010;2022-08-19T03:02:40;22.10;99.90
54461;DHT22;40371;49.414;11.010;2022-08-19T03:05:08;22.10;99.90
54461;DHT22;40371;49.414;11.010;2022-08-19T03:07:35;22.10;99.90
54461;DHT22;40371;49.414;11.010;2022-08-19T03:10:00;22.10;99.90
54461;DHT22;40371;49.414;11.010;2022-08-19T03:12:26;22.20;99.90
54461;DHT22;40371;49.414;11.010;2022-08-19T03:14:51;22.20;99.90
54461;DHT22;40371;49.414;11.010;2022-08-19T03:17:18;22.20;99.90
54461;DHT22;40371;49.414;11.010;2022-08-19T03:19:43;22.10;99.90
54461;DHT22;40371;49.414;11.010;2022-08-19T03:22:09;22.10;99.90
54461;DHT22;40371;49.414;11.010;2022-08-19T03:24:35;22.10;99.90
54461;DHT22;40371;49.414;11.010;2022-08-19T03:27:00;22.20;99.90
54461;DHT22;40371;49.414;11.010;2022-08-19T03:29:30;22.10;99.90
54461;DHT22;40371;49.414;11.010;2022-08-19T03:31:58;22.10;99.90
54461;DHT22;40371;49.414;11.010;2022-08-19T03:34:27;22.10;99.90
54461;DHT22;40371;49.414;11.010;2022-08-19T03:36:55;22.10;99.90
54461;DHT22;40371;49.414;11.010;2022-08-19T03:39:21;22.10;99.90
54461;DHT22;40371;49.414;11.010;2022-08-19T03:41:48;22.10;99.90
54461;DHT22;40371;49.414;11.010;2022-08-19T03:44:18;22.00;99.90
54461;DHT22;40371;49.414;11.010;2022-08-19T03:46:48;22.00;99.90
54461;DHT22;40371;49.414;11.010;2022-08-19T03:49:14;22.00;99.90
54461;DHT22;40371;49.414;11.010;2022-08-19T03:51:41;22.00;99.90
54461;DHT22;40371;49.414;11.010;2022-08-19T03:54:08;21.90;99.90
54461;DHT22;40371;49.414;11.010;2022-08-19T03:56:37;22.00;99.90
54461;DHT22;40371;49.414;11.010;2022-08-19T03:59:05;22.10;99.90
54461;DHT22;40371;49.414;11.010;2022-08-19T04:01:31;22.00;99.90
54461;DHT22;40371;49.414;11.010;2022-08-19T04:03:58;22.00;99.90
54461;DHT22;40371;49.414;11.010;2022-08-19T04:06:29;22.00;99.90
54461;DHT22;40371;49.414;11.010;2022-08-19T04:08:57;22.00;99.90
54461;DHT22;40371;49.414;11.010;2022-08-19T04:11:27;21.90;99.90
54461;DHT22;40371;49.414;11.010;2022-08-19T04:13:53;21.90;99.90
54461;DHT22;40371;49.414;11.010;2022-08-19T04:16:21;21.90;99.90
54461;DHT22;40371;49.414;11.010;2022-08-19T04:18:48;21.90;99.90
54461;DHT22;40371;49.414;11.010;2022-08-19T04:21:24;21.90;99.90
54461;DHT22;40371;49.414;11.010;2022-08-19T04:23:50;21.90;99.90
54461;DHT22;40371;49.414;11.010;2022-08-19T04:26:22;21.90;99.90
54461;DHT22;40371;49.414;11.010;2022-08-19T04:28:48;22.00;99.90
54461;DHT22;40371;49.414;11.010;2022-08-19T04:31:25;21.90;99.90
54461;DHT22;40371;49.414;11.010;2022-08-19T04:33:56;21.90;99.90
54461;DHT22;40371;49.414;11.010;2022-08-19T04:36:29;22.00;99.90
54461;DHT22;40371;49.414;11.010;2022-08-19T04:38:56;22.00;99.90
54461;DHT22;40371;49.414;11.010;2022-08-19T04:41:23;22.00;99.90
54461;DHT22;40371;49.414;11.010;2022-08-19T04:44:07;22.10;99.90
54461;DHT22;40371;49.414;11.010;2022-08-19T04:46:33;22.10;99.90
54461;DHT22;40371;49.414;11.010;2022-08-19T04:49:00;22.00;99.90
54461;DHT22;40371;49.414;11.010;2022-08-19T04:51:26;22.10;99.90
54461;DHT22;40371;49.414;11.010;2022-08-19T04:53:52;22.00;99.90
54461;DHT22;40371;49.414;11.010;2022-08-19T04:56:20;22.00;99.90
54461;DHT22;40371;49.414;11.010;2022-08-19T04:58:52;22.00;99.90
54461;DHT22;40371;49.414;11.010;2022-08-19T05:01:21;22.00;99.90
54461;DHT22;40371;49.414;11.010;2022-08-19T05:03:47;22.00;99.90
54461;DHT22;40371;49.414;11.010;2022-08-19T05:06:14;22.10;99.90
54461;DHT22;40371;49.414;11.010;2022-08-19T05:08:41;22.00;99.90
54461;DHT22;40371;49.414;11.010;2022-08-19T05:11:14;22.00;99.90
54461;DHT22;40371;49.414;11.010;2022-08-19T05:13:41;22.10;99.90
54461;DHT22;40371;49.414;11.010;2022-08-19T05:16:09;22.10;99.90
54461;DHT22;40371;49.414;11.010;2022-08-19T05:18:35;22.10;99.90
54461;DHT22;40371;49.414;11.010;2022-08-19T05:21:20;22.10;99.90
54461;DHT22;40371;49.414;11.010;2022-08-19T05:24:05;22.00;99.90
54461;DHT22;40371;49.414;11.010;2022-08-19T05:26:45;22.10;99.90
54461;DHT22;40371;49.414;11.010;2022-08-19T05:29:12;22.20;99.90
54461;DHT22;40371;49.414;11.010;2022-08-19T05:31:39;22.10;99.90
54461;DHT22;40371;49.414;11.010;2022-08-19T05:34:05;22.10;99.90
54461;DHT22;40371;49.414;11.010;2022-08-19T05:36:41;22.10;99.90
54461;DHT22;40371;49.414;11.010;2022-08-19T05:39:12;22.10;99.90
54461;DHT22;40371;49.414;11.010;2022-08-19T05:41:44;22.00;99.90
54461;DHT22;40371;49.414;11.010;2022-08-19T05:44:10;22.10;99.90
54461;DHT22;40371;49.414;11.010;2022-08-19T05:46:37;22.10;99.90
54461;DHT22;40371;49.414;11.010;2022-08-19T05:49:06;22.10;99.90
54461;DHT22;40371;49.414;11.010;2022-08-19T05:51:33;22.10;99.90
54461;DHT22;40371;49.414;11.010;2022-08-19T05:54:00;22.20;99.90
54461;DHT22;40371;49.414;11.010;2022-08-19T05:56:26;22.20;99.90
54461;DHT22;40371;49.414;11.010;2022-08-19T05:58:52;22.20;99.90
54461;DHT22;40371;49.414;11.010;2022-08-19T06:01:20;22.20;99.90
54461;DHT22;40371;49.414;11.010;2022-08-19T06:03:46;22.20;99.90
54461;DHT22;40371;49.414;11.010;2022-08-19T06:06:14;22.20;99.90
54461;DHT22;40371;49.414;11.010;2022-08-19T06:08:40;22.30;99.90
54461;DHT22;40371;49.414;11.010;2022-08-19T06:11:22;22.30;99.90
54461;DHT22;40371;49.414;11.010;2022-08-19T06:13:50;22.40;99.90
54461;DHT22;40371;49.414;11.010;2022-08-19T06:16:18;22.50;99.90
54461;DHT22;40371;49.414;11.010;2022-08-19T06:18:46;22.50;99.90
54461;DHT22;40371;49.414;11.010;2022-08-19T06:21:12;22.60;99.90
54461;DHT22;40371;49.414;11.010;2022-08-19T06:23:38;22.60;99.90
54461;DHT22;40371;49.414;11.010;2022-08-19T06:26:05;22.60;99.90
54461;DHT22;40371;49.414;11.010;2022-08-19T06:28:30;22.70;99.90
54461;DHT22;40371;49.414;11.010;2022-08-19T06:30:58;22.80;99.90
54461;DHT22;40371;49.414;11.010;2022-08-19T06:33:24;22.80;99.90
54461;DHT22;40371;49.414;11.010;2022-08-19T06:35:49;22.90;99.90
54461;DHT22;40371;49.414;11.010;2022-08-19T06:38:15;23.00;99.90
54461;DHT22;40371;49.414;11.010;2022-08-19T06:40:40;23.20;99.90
54461;DHT22;40371;49.414;11.010;2022-08-19T06:43:06;23.20;99.90
54461;DHT22;40371;49.414;11.010;2022-08-19T06:45:32;23.30;99.90
54461;DHT22;40371;49.414;11.010;2022-08-19T06:47:57;23.30;99.90
54461;DHT22;40371;49.414;11.010;2022-08-19T06:50:23;23.30;99.90
54461;DHT22;40371;49.414;11.010;2022-08-19T06:52:49;23.20;99.90
54461;DHT22;40371;49.414;11.010;2022-08-19T06:55:15;23.30;99.90
54461;DHT22;40371;49.414;11.010;2022-08-19T06:57:41;23.30;99.90
54461;DHT22;40371;49.414;11.010;2022-08-19T07:00:09;23.20;99.90
54461;DHT22;40371;49.414;11.010;2022-08-19T07:02:44;23.30;99.90
54461;DHT22;40371;49.414;11.010;2022-08-19T07:05:10;23.20;99.90
54461;DHT22;40371;49.414;11.010;2022-08-19T07:07:36;23.30;99.90
54461;DHT22;40371;49.414;11.010;2022-08-19T07:10:03;23.40;99.90
54461;DHT22;40371;49.414;11.010;2022-08-19T07:12:30;23.30;99.90
54461;DHT22;40371;49.414;11.010;2022-08-19T07:14:58;23.40;99.90
54461;DHT22;40371;49.414;11.010;2022-08-19T07:17:24;23.40;99.90
54461;DHT22;40371;49.414;11.010;2022-08-19T07:19:50;23.30;99.90
54461;DHT22;40371;49.414;11.010;2022-08-19T07:22:17;23.10;99.90
54461;DHT22;40371;49.414;11.010;2022-08-19T07:24:43;23.20;99.90
54461;DHT22;40371;49.414;11.010;2022-08-19T07:27:08;23.30;99.90
54461;DHT22;40371;49.414;11.010;2022-08-19T07:29:35;23.30;99.90
54461;DHT22;40371;49.414;11.010;2022-08-19T07:32:02;23.30;99.90
54461;DHT22;40371;49.414;11.010;2022-08-19T07:34:29;23.20;99.90
54461;DHT22;40371;49.414;11.010;2022-08-19T07:36:56;23.20;99.90
54461;DHT22;40371;49.414;11.010;2022-08-19T07:39:25;23.40;99.90
54461;DHT22;40371;49.414;11.010;2022-08-19T07:41:52;23.40;99.90
54461;DHT22;40371;49.414;11.010;2022-08-19T07:44:19;23.40;99.90
54461;DHT22;40371;49.414;11.010;2022-08-19T07:46:48;23.30;99.90
54461;DHT22;40371;49.414;11.010;2022-08-19T07:49:14;23.20;99.90
54461;DHT22;40371;49.414;11.010;2022-08-19T07:51:50;23.30;99.90
54461;DHT22;40371;49.414;11.010;2022-08-19T07:54:17;23.20;99.90
54461;DHT22;40371;49.414;11.010;2022-08-19T07:56:42;23.20;99.90
54461;DHT22;40371;49.414;11.010;2022-08-19T07:59:08;23.20;99.90
54461;DHT22;40371;49.414;11.010;2022-08-19T08:01:35;23.20;99.90
54461;DHT22;40371;49.414;11.010;2022-08-19T08:04:01;23.10;99.90
54461;DHT22;40371;49.414;11.010;2022-08-19T08:06:45;23.20;99.90
54461;DHT22;40371;49.414;11.010;2022-08-19T08:09:34;23.20;99.90
54461;DHT22;40371;49.414;11.010;2022-08-19T08:12:03;23.30;99.90
54461;DHT22;40371;49.414;11.010;2022-08-19T08:17:02;23.40;99.90
54461;DHT22;40371;49.414;11.010;2022-08-19T08:19:28;23.50;99.90
54461;DHT22;40371;49.414;11.010;2022-08-19T08:21:56;23.50;99.90
54461;DHT22;40371;49.414;11.010;2022-08-19T08:24:23;23.60;99.90
54461;DHT22;40371;49.414;11.010;2022-08-19T08:26:49;23.60;99.90
54461;DHT22;40371;49.414;11.010;2022-08-19T08:29:14;23.60;99.90
54461;DHT22;40371;49.414;11.010;2022-08-19T08:31:43;23.70;99.90
54461;DHT22;40371;49.414;11.010;2022-08-19T08:34:10;23.80;99.90
54461;DHT22;40371;49.414;11.010;2022-08-19T08:36:44;23.70;99.90
54461;DHT22;40371;49.414;11.010;2022-08-19T08:39:14;23.60;99.90
54461;DHT22;40371;49.414;11.010;2022-08-19T08:41:49;23.60;99.90
54461;DHT22;40371;49.414;11.010;2022-08-19T08:44:57;23.50;99.90
54461;DHT22;40371;49.414;11.010;2022-08-19T08:47:25;23.50;99.90
54461;DHT22;40371;49.414;11.010;2022-08-19T08:52:32;23.40;99.90
54461;DHT22;40371;49.414;11.010;2022-08-19T08:55:05;23.40;99.90
54461;DHT22;40371;49.414;11.010;2022-08-19T08:58:12;23.50;99.90
54461;DHT22;40371;49.414;11.010;2022-08-19T09:00:41;23.50;99.90
54461;DHT22;40371;49.414;11.010;2022-08-19T09:03:17;23.60;99.90
54461;DHT22;40371;49.414;11.010;2022-08-19T09:06:07;23.60;99.90
54461;DHT22;40371;49.414;11.010;2022-08-19T09:09:02;23.60;99.90
54461;DHT22;40371;49.414;11.010;2022-08-19T09:14:19;23.70;99.90
54461;DHT22;40371;49.414;11.010;2022-08-19T09:16:48;23.70;99.90
54461;DHT22;40371;49.414;11.010;2022-08-19T09:19:14;23.70;99.90
54461;DHT22;40371;49.414;11.010;2022-08-19T09:21:42;23.70;99.90
54461;DHT22;40371;49.414;11.010;2022-08-19T09:24:08;23.80;99.90
54461;DHT22;40371;49.414;11.010;2022-08-19T09:26:34;23.80;99.90
54461;DHT22;40371;49.414;11.010;2022-08-19T09:29:00;23.60;99.90
54461;DHT22;40371;49.414;11.010;2022-08-19T09:31:28;23.60;99.90
54461;DHT22;40371;49.414;11.010;2022-08-19T09:33:55;23.60;99.90
54461;DHT22;40371;49.414;11.010;2022-08-19T09:36:23;23.50;99.90
54461;DHT22;40371;49.414;11.010;2022-08-19T09:38:51;23.50;99.90
54461;DHT22;40371;49.414;11.010;2022-08-19T09:41:23;23.60;99.90
54461;DHT22;40371;49.414;11.010;2022-08-19T09:43:52;23.70;99.90
54461;DHT22;40371;49.414;11.010;2022-08-19T09:46:21;23.80;99.90
54461;DHT22;40371;49.414;11.010;2022-08-19T09:48:48;23.80;99.90
54461;DHT22;40371;49.414;11.010;2022-08-19T09:51:18;23.90;99.90
54461;DHT22;40371;49.414;11.010;2022-08-19T09:53:45;24.10;99.90
54461;DHT22;40371;49.414;11.010;2022-08-19T09:56:12;23.90;99.90
54461;DHT22;40371;49.414;11.010;2022-08-19T09:58:39;23.90;99.90
54461;DHT22;40371;49.414;11.010;2022-08-19T10:01:06;23.90;99.90
54461;DHT22;40371;49.414;11.010;2022-08-19T10:03:33;23.90;99.90
54461;DHT22;40371;49.414;11.010;2022-08-19T10:06:02;23.90;99.90
54461;DHT22;40371;49.414;11.010;2022-08-19T10:08:34;23.60;99.90
54461;DHT22;40371;49.414;11.010;2022-08-19T10:11:01;23.60;99.90
54461;DHT22;40371;49.414;11.010;2022-08-19T10:13:29;23.60;99.90
54461;DHT22;40371;49.414;11.010;2022-08-19T10:16:02;23.40;99.90
54461;DHT22;40371;49.414;11.010;2022-08-19T10:18:28;23.40;99.90
54461;DHT22;40371;49.414;11.010;2022-08-19T10:23:35;23.50;99.90
54461;DHT22;40371;49.414;11.010;2022-08-19T10:26:02;23.50;99.90
54461;DHT22;40371;49.414;11.010;2022-08-19T10:28:29;23.50;99.90
54461;DHT22;40371;49.414;11.010;2022-08-19T10:30:54;23.50;99.90
54461;DHT22;40371;49.414;11.010;2022-08-19T10:33:20;23.50;99.90
54461;DHT22;40371;49.414;11.010;2022-08-19T10:35:45;23.40;99.90
54461;DHT22;40371;49.414;11.010;2022-08-19T10:38:12;23.40;99.90
54461;DHT22;40371;49.414;11.010;2022-08-19T10:40:37;23.40;99.90
54461;DHT22;40371;49.414;11.010;2022-08-19T10:43:03;23.40;99.90
54461;DHT22;40371;49.414;11.010;2022-08-19T10:45:29;23.30;99.90
54461;DHT22;40371;49.414;11.010;2022-08-19T10:47:54;23.20;99.90
54461;DHT22;40371;49.414;11.010;2022-08-19T10:50:20;23.30;99.90
54461;DHT22;40371;49.414;11.010;2022-08-19T10:53:06;23.20;99.90
54461;DHT22;40371;49.414;11.010;2022-08-19T10:55:35;23.20;99.90
54461;DHT22;40371;49.414;11.010;2022-08-19T10:58:21;23.30;99.90
54461;DHT22;40371;49.414;11.010;2022-08-19T11:00:56;23.30;99.90
54461;DHT22;40371;49.414;11.010;2022-08-19T11:03:24;23.30;99.90
54461;DHT22;40371;49.414;11.010;2022-08-19T11:06:05;23.30;99.90
54461;DHT22;40371;49.414;11.010;2022-08-19T11:08:31;23.30;99.90
54461;DHT22;40371;49.414;11.010;2022-08-19T11:11:00;23.20;99.90
54461;DHT22;40371;49.414;11.010;2022-08-19T11:13:28;23.20;99.90
54461;DHT22;40371;49.414;11.010;2022-08-19T11:16:03;23.10;99.90
54461;DHT22;40371;49.414;11.010;2022-08-19T11:18:29;23.20;99.90
54461;DHT22;40371;49.414;11.010;2022-08-19T11:20:54;23.10;99.90
54461;DHT22;40371;49.414;11.010;2022-08-19T11:23:20;23.20;99.90
54461;DHT22;40371;49.414;11.010;2022-08-19T11:25:46;23.10;99.90
54461;DHT22;40371;49.414;11.010;2022-08-19T11:28:12;23.20;99.90
54461;DHT22;40371;49.414;11.010;2022-08-19T11:30:38;23.20;99.90
54461;DHT22;40371;49.414;11.010;2022-08-19T11:33:04;23.20;99.90
54461;DHT22;40371;49.414;11.010;2022-08-19T11:35:30;23.20;99.90
54461;DHT22;40371;49.414;11.010;2022-08-19T11:37:56;23.30;99.90
54461;DHT22;40371;49.414;11.010;2022-08-19T11:40:24;23.30;99.90
54461;DHT22;40371;49.414;11.010;2022-08-19T11:42:49;23.40;99.90
54461;DHT22;40371;49.414;11.010;2022-08-19T11:45:26;23.40;99.90
54461;DHT22;40371;49.414;11.010;2022-08-19T11:47:52;23.30;99.90
54461;DHT22;40371;49.414;11.010;2022-08-19T11:50:18;23.20;99.90
54461;DHT22;40371;49.414;11.010;2022-08-19T11:52:44;23.30;99.90
54461;DHT22;40371;49.414;11.010;2022-08-19T11:55:14;23.20;99.90
54461;DHT22;40371;49.414;11.010;2022-08-19T11:57:40;23.20;99.90
54461;DHT22;40371;49.414;11.010;2022-08-19T12:00:10;23.30;99.90
54461;DHT22;40371;49.414;11.010;2022-08-19T12:02:37;23.30;99.90
54461;DHT22;40371;49.414;11.010;2022-08-19T12:05:03;23.40;99.90
54461;DHT22;40371;49.414;11.010;2022-08-19T12:07:29;23.30;99.90
54461;DHT22;40371;49.414;11.010;2022-08-19T12:09:59;23.30;99.90
54461;DHT22;40371;49.414;11.010;2022-08-19T12:12:26;23.20;99.90
54461;DHT22;40371;49.414;11.010;2022-08-19T12:14:52;22.90;99.90
54461;DHT22;40371;49.414;11.010;2022-08-19T12:17:30;22.70;99.90
54461;DHT22;40371;49.414;11.010;2022-08-19T12:19:56;22.70;99.90
54461;DHT22;40371;49.414;11.010;2022-08-19T12:22:22;22.60;99.90
54461;DHT22;40371;49.414;11.010;2022-08-19T12:24:48;22.70;99.90
54461;DHT22;40371;49.414;11.010;2022-08-19T12:27:16;22.60;99.90
54461;DHT22;40371;49.414;11.010;2022-08-19T12:29:41;22.70;99.90
54461;DHT22;40371;49.414;11.010;2022-08-19T12:32:07;22.60;99.90
54461;DHT22;40371;49.414;11.010;2022-08-19T12:34:33;22.50;99.90
54461;DHT22;40371;49.414;11.010;2022-08-19T12:37:01;22.50;99.90
54461;DHT22;40371;49.414;11.010;2022-08-19T12:39:27;22.50;99.90
54461;DHT22;40371;49.414;11.010;2022-08-19T12:41:53;22.50;99.90
54461;DHT22;40371;49.414;11.010;2022-08-19T12:44:19;22.50;99.90
54461;DHT22;40371;49.414;11.010;2022-08-19T12:46:44;22.40;99.90
54461;DHT22;40371;49.414;11.010;2022-08-19T12:49:10;22.30;99.90
54461;DHT22;40371;49.414;11.010;2022-08-19T12:51:35;22.20;99.90
54461;DHT22;40371;49.414;11.010;2022-08-19T12:54:02;22.20;99.90
54461;DHT22;40371;49.414;11.010;2022-08-19T12:56:27;22.10;99.90
54461;DHT22;40371;49.414;11.010;2022-08-19T12:58:53;22.00;99.90
54461;DHT22;40371;49.414;11.010;2022-08-19T13:01:20;21.90;99.90
54461;DHT22;40371;49.414;11.010;2022-08-19T13:03:46;21.90;99.90
54461;DHT22;40371;49.414;11.010;2022-08-19T13:06:12;22.00;99.90
54461;DHT22;40371;49.414;11.010;2022-08-19T13:08:38;22.00;99.90
54461;DHT22;40371;49.414;11.010;2022-08-19T13:11:13;21.90;99.90
54461;DHT22;40371;49.414;11.010;2022-08-19T13:13:41;21.90;99.90
54461;DHT22;40371;49.414;11.010;2022-08-19T13:16:09;22.10;99.90
54461;DHT22;40371;49.414;11.010;2022-08-19T13:18:36;22.00;99.90
54461;DHT22;40371;49.414;11.010;2022-08-19T13:21:04;21.80;99.90
54461;DHT22;40371;49.414;11.010;2022-08-19T13:23:30;21.90;99.90
54461;DHT22;40371;49.414;11.010;2022-08-19T13:26:00;21.80;99.90
54461;DHT22;40371;49.414;11.010;2022-08-19T13:28:26;21.90;99.90
54461;DHT22;40371;49.414;11.010;2022-08-19T13:31:15;22.00;99.90
54461;DHT22;40371;49.414;11.010;2022-08-19T13:33:59;22.00;99.90
54461;DHT22;40371;49.414;11.010;2022-08-19T13:36:25;22.00;99.90
54461;DHT22;40371;49.414;11.010;2022-08-19T13:38:50;21.90;99.90
54461;DHT22;40371;49.414;11.010;2022-08-19T13:41:17;22.00;99.90
54461;DHT22;40371;49.414;11.010;2022-08-19T13:43:44;22.00;99.90
54461;DHT22;40371;49.414;11.010;2022-08-19T13:46:10;22.00;99.90
54461;DHT22;40371;49.414;11.010;2022-08-19T13:48:39;22.10;99.90
54461;DHT22;40371;49.414;11.010;2022-08-19T13:51:06;22.10;99.90
54461;DHT22;40371;49.414;11.010;2022-08-19T13:53:35;22.10;99.90
54461;DHT22;40371;49.414;11.010;2022-08-19T13:56:08;22.00;99.90
54461;DHT22;40371;49.414;11.010;2022-08-19T13:58:33;21.90;99.90
54461;DHT22;40371;49.414;11.010;2022-08-19T14:00:59;21.90;99.90
54461;DHT22;40371;49.414;11.010;2022-08-19T14:03:26;21.90;99.90
54461;DHT22;40371;49.414;11.010;2022-08-19T14:05:51;21.90;99.90
54461;DHT22;40371;49.414;11.010;2022-08-19T14:08:17;21.80;99.90
54461;DHT22;40371;49.414;11.010;2022-08-19T14:10:44;21.90;99.90
54461;DHT22;40371;49.414;11.010;2022-08-19T14:13:14;21.90;99.90
54461;DHT22;40371;49.414;11.010;2022-08-19T14:15:40;22.00;99.90
54461;DHT22;40371;49.414;11.010;2022-08-19T14:18:05;22.00;99.90
54461;DHT22;40371;49.414;11.010;2022-08-19T14:20:37;22.00;99.90
54461;DHT22;40371;49.414;11.010;2022-08-19T14:23:03;22.10;99.90
54461;DHT22;40371;49.414;11.010;2022-08-19T14:25:31;22.00;99.90
54461;DHT22;40371;49.414;11.010;2022-08-19T14:27:58;21.90;99.90
54461;DHT22;40371;49.414;11.010;2022-08-19T14:30:33;21.90;99.90
54461;DHT22;40371;49.414;11.010;2022-08-19T14:33:00;21.90;99.90
54461;DHT22;40371;49.414;11.010;2022-08-19T14:35:27;21.90;99.90
54461;DHT22;40371;49.414;11.010;2022-08-19T14:37:54;21.80;99.90
54461;DHT22;40371;49.414;11.010;2022-08-19T14:40:22;21.70;99.90
54461;DHT22;40371;49.414;11.010;2022-08-19T14:42:52;21.70;99.90
54461;DHT22;40371;49.414;11.010;2022-08-19T14:45:21;21.60;99.90
54461;DHT22;40371;49.414;11.010;2022-08-19T14:47:46;21.60;99.90
54461;DHT22;40371;49.414;11.010;2022-08-19T14:50:12;21.60;99.90
54461;DHT22;40371;49.414;11.010;2022-08-19T14:52:39;21.60;99.90
54461;DHT22;40371;49.414;11.010;2022-08-19T14:55:06;21.40;99.90
54461;DHT22;40371;49.414;11.010;2022-08-19T14:57:31;21.40;99.90
54461;DHT22;40371;49.414;11.010;2022-08-19T14:59:58;21.20;99.90
54461;DHT22;40371;49.414;11.010;2022-08-19T15:02:24;21.20;99.90
54461;DHT22;40371;49.414;11.010;2022-08-19T15:04:49;21.10;99.90
54461;DHT22;40371;49.414;11.010;2022-08-19T15:07:16;21.00;99.90
54461;DHT22;40371;49.414;11.010;2022-08-19T15:09:41;21.00;99.90
54461;DHT22;40371;49.414;11.010;2022-08-19T15:12:08;20.90;99.90
54461;DHT22;40371;49.414;11.010;2022-08-19T15:14:35;20.90;99.90
54461;DHT22;40371;49.414;11.010;2022-08-19T15:17:04;20.90;99.90
54461;DHT22;40371;49.414;11.010;2022-08-19T15:19:31;20.90;99.90
54461;DHT22;40371;49.414;11.010;2022-08-19T15:21:57;20.90;99.90
54461;DHT22;40371;49.414;11.010;2022-08-19T15:24:22;20.80;99.90
54461;DHT22;40371;49.414;11.010;2022-08-19T15:26:52;20.80;99.90
54461;DHT22;40371;49.414;11.010;2022-08-19T15:29:18;20.80;99.90
54461;DHT22;40371;49.414;11.010;2022-08-19T15:31:43;20.80;99.90